Terminal Aerodrome Forecast
Issued by NWS

Home | Current Version | Previous Version | Graphics & Text | Print | Product List | Glossary On
Versions: 1 2 3 4 5 6 7 8 9 10 11 12 13
137
FTUS43 KICT 071732
TAFHUT
TAF
KHUT 071732Z 0718/0818 34018G29KT P6SM FEW250
     FM072000 33023G35KT P6SM SCT080 BKN120
     FM080100 32016G23KT P6SM SCT200
     FM081700 33028G37KT P6SM SCT250=

USA.gov is the U.S. government's official web portal to all federal, state and local government web resources and services.